Time;durP1;ratioP1;P1;durP2;ratioP2;P2;SDS_P1;SDS_P2;PMS_P1;PMS_P2;Temp;Humidity;BMP_temperature;BMP_pressure;BME280_temperature;BME280_humidity;BME280_pressure;Samples;Min_cycle;Max_cycle;Signal;HPM_P1;HPM_P2
2021/10/28 00:13:13;;;;;;;17.80;14.75;;;;;;;;;;10237605;28;20076;-64
2021/10/28 00:18:14;;;;;;;22.30;15.65;;;;;;;;;;10238042;28;20562;-64
2021/10/28 00:23:14;;;;;;;27.95;18.38;;;;;;;;;;10237442;28;20422;-64
2021/10/28 00:28:12;;;;;;;19.67;15.88;;;;;;;;;;10236244;28;20081;-64
2021/10/28 00:33:10;;;;;;;26.33;17.35;;;;;;;;;;10243105;28;20069;-64
2021/10/28 00:38:09;;;;;;;22.85;16.52;;;;;;;;;;10241223;28;20046;-65
2021/10/28 00:43:08;;;;;;;19.95;13.73;;;;;;;;;;10239486;28;20057;-64
2021/10/28 00:48:07;;;;;;;17.30;14.35;;;;;;;;;;10236454;28;20499;-64
2021/10/28 00:53:06;;;;;;;15.85;12.65;;;;;;;;;;10235637;28;20167;-64
2021/10/28 00:58:06;;;;;;;15.38;12.45;;;;;;;;;;10236566;28;20061;-64
2021/10/28 01:03:05;;;;;;;15.07;10.93;;;;;;;;;;10235496;28;20072;-64
2021/10/28 01:08:04;;;;;;;14.95;12.82;;;;;;;;;;10236086;28;20041;-63
2021/10/28 01:13:03;;;;;;;15.07;12.88;;;;;;;;;;10235955;28;20088;-62
2021/10/28 01:18:02;;;;;;;15.73;12.32;;;;;;;;;;10237660;28;20061;-64
2021/10/28 01:23:01;;;;;;;15.15;12.52;;;;;;;;;;10236987;28;20034;-64
2021/10/28 01:28:00;;;;;;;16.10;12.75;;;;;;;;;;10235278;28;20076;-63
2021/10/28 01:32:58;;;;;;;17.50;13.48;;;;;;;;;;10234342;28;20069;-64
2021/10/28 01:37:56;;;;;;;17.38;13.30;;;;;;;;;;10234522;28;20506;-63
2021/10/28 01:42:57;;;;;;;16.80;13.52;;;;;;;;;;10235001;28;20103;-64
2021/10/28 01:47:55;;;;;;;18.30;15.13;;;;;;;;;;10234638;28;20044;-64
2021/10/28 01:52:53;;;;;;;17.17;12.85;;;;;;;;;;10234579;28;20069;-63
2021/10/28 01:57:53;;;;;;;22.88;13.82;;;;;;;;;;10234265;28;20383;-64
2021/10/28 02:02:54;;;;;;;17.15;13.75;;;;;;;;;;10233915;28;20073;-64
2021/10/28 02:07:53;;;;;;;17.20;13.68;;;;;;;;;;10234245;28;20072;-64
2021/10/28 02:12:51;;;;;;;21.48;15.65;;;;;;;;;;10233876;28;20061;-63
2021/10/28 02:17:49;;;;;;;15.68;13.45;;;;;;;;;;10233565;28;20070;-63
2021/10/28 02:22:49;;;;;;;16.98;14.00;;;;;;;;;;10234715;28;20053;-64
2021/10/28 02:27:48;;;;;;;17.15;14.52;;;;;;;;;;10234903;28;20073;-63
2021/10/28 02:32:47;;;;;;;15.95;13.80;;;;;;;;;;10233160;28;20073;-63
2021/10/28 02:37:46;;;;;;;17.77;14.18;;;;;;;;;;10233693;28;20084;-65
2021/10/28 02:42:46;;;;;;;18.40;14.50;;;;;;;;;;10233518;28;20427;-63
2021/10/28 02:47:44;;;;;;;17.55;14.43;;;;;;;;;;10233558;28;20065;-63
2021/10/28 02:52:44;;;;;;;18.75;15.18;;;;;;;;;;10247134;28;20075;-65
2021/10/28 02:57:42;;;;;;;18.92;15.55;;;;;;;;;;10243762;28;20072;-64
2021/10/28 03:02:42;;;;;;;15.65;14.02;;;;;;;;;;10240027;28;20064;-65
2021/10/28 03:07:41;;;;;;;17.13;14.90;;;;;;;;;;10240004;28;20037;-65
2021/10/28 03:12:41;;;;;;;18.35;15.80;;;;;;;;;;10240628;28;20502;-65
2021/10/28 03:17:53;;;;;;;15.95;13.32;;;;;;;;;;10240243;28;20531;-65
2021/10/28 03:28:15;;;;;;;17.15;15.00;;;;;;;;;;10241850;28;20455;-65
2021/10/28 03:33:15;;;;;;;;;;;;;;;;;;10243758;28;20068;-65
2021/10/28 03:38:20;;;;;;;19.08;15.20;;;;;;;;;;10245329;28;19921;-64
2021/10/28 03:59:22;;;;;;;19.35;14.63;;;;;;;;;;10249367;28;19967;-64
2021/10/28 04:30:55;;;;;;;19.20;13.75;;;;;;;;;;10390183;28;20076;-65
2021/10/28 04:35:54;;;;;;;15.65;13.20;;;;;;;;;;10381191;28;20079;-63
2021/10/28 04:40:53;;;;;;;17.92;14.02;;;;;;;;;;10385032;28;20039;-64
2021/10/28 04:45:51;;;;;;;17.00;13.45;;;;;;;;;;10383523;28;20478;-64
2021/10/28 04:50:50;;;;;;;19.52;13.65;;;;;;;;;;10369321;28;20075;-64
2021/10/28 04:55:48;;;;;;;21.27;13.23;;;;;;;;;;10367348;28;20063;-66
2021/10/28 05:00:48;;;;;;;16.67;13.77;;;;;;;;;;10378717;28;20075;-64
2021/10/28 05:05:47;;;;;;;22.17;14.05;;;;;;;;;;10370537;28;20439;-65
2021/10/28 05:10:45;;;;;;;19.45;15.77;;;;;;;;;;10376404;28;20078;-64
2021/10/28 05:15:44;;;;;;;16.25;14.35;;;;;;;;;;10367430;28;20063;-64
2021/10/28 05:20:44;;;;;;;18.08;14.52;;;;;;;;;;10380131;28;20082;-64
2021/10/28 05:25:43;;;;;;;39.40;21.58;;;;;;;;;;10375227;28;20086;-63
2021/10/28 05:30:41;;;;;;;23.40;17.77;;;;;;;;;;10373367;28;20075;-63
2021/10/28 05:35:46;;;;;;;160.43;133.25;;;;;;;;;;10357722;28;20068;-64
2021/10/28 05:40:45;;;;;;;91.38;68.47;;;;;;;;;;10358319;28;20106;-64
2021/10/28 05:45:44;;;;;;;80.13;50.33;;;;;;;;;;10353195;28;20067;-64
2021/10/28 05:50:45;;;;;;;88.25;61.90;;;;;;;;;;10357945;28;20109;-65
2021/10/28 05:55:45;;;;;;;96.50;69.40;;;;;;;;;;10354995;28;20040;-64
2021/10/28 06:00:43;;;;;;;97.28;61.88;;;;;;;;;;10351323;28;20544;-64
2021/10/28 06:05:41;;;;;;;100.63;70.72;;;;;;;;;;10339078;28;20486;-64
2021/10/28 06:10:39;;;;;;;112.85;75.38;;;;;;;;;;10349290;28;20572;-65
2021/10/28 06:15:39;;;;;;;90.07;65.85;;;;;;;;;;10324230;28;20075;-66
2021/10/28 06:20:38;;;;;;;18.33;16.15;;;;;;;;;;10322338;28;20710;-64
2021/10/28 06:25:37;;;;;;;19.48;17.48;;;;;;;;;;10290590;28;20125;-62
2021/10/28 06:30:35;;;;;;;18.02;16.02;;;;;;;;;;10348608;28;20091;-65
2021/10/28 06:35:38;;;;;;;18.40;15.75;;;;;;;;;;10353269;28;20078;-65
2021/10/28 06:40:37;;;;;;;18.83;16.02;;;;;;;;;;10343985;28;20074;-63
2021/10/28 06:45:35;;;;;;;21.45;16.83;;;;;;;;;;10344511;28;20064;-62
2021/10/28 06:50:40;;;;;;;24.35;17.70;;;;;;;;;;10342008;28;20075;-65
2021/10/28 06:55:47;;;;;;;22.07;17.43;;;;;;;;;;10355991;28;20068;-65
2021/10/28 07:06:04;;;;;;;44.15;29.67;;;;;;;;;;10356103;28;20158;-66
2021/10/28 07:11:08;;;;;;;57.80;37.55;;;;;;;;;;10355529;28;20056;-66
2021/10/28 07:16:12;;;;;;;43.90;26.95;;;;;;;;;;10355184;28;20068;-66
2021/10/28 07:21:29;;;;;;;52.00;29.67;;;;;;;;;;10353734;28;20491;-66
2021/10/28 07:26:41;;;;;;;58.22;44.65;;;;;;;;;;10355166;28;20072;-65
2021/10/28 08:14:48;;;;;;;28.25;21.17;;;;;;;;;;10354401;28;20036;-65
2021/10/28 08:19:47;;;;;;;27.17;18.80;;;;;;;;;;10351259;28;20048;-65
2021/10/28 08:30:05;;;;;;;39.05;26.90;;;;;;;;;;10353888;28;20059;-66
2021/10/28 08:35:04;;;;;;;31.58;23.75;;;;;;;;;;10352244;28;20040;-66
2021/10/28 08:40:03;;;;;;;25.10;18.83;;;;;;;;;;10352891;28;20076;-64
2021/10/28 08:45:02;;;;;;;25.02;17.80;;;;;;;;;;10353641;28;20084;-64
2021/10/28 08:50:04;;;;;;;16.58;14.75;;;;;;;;;;10353608;28;20079;-65
2021/10/28 08:55:13;;;;;;;21.30;15.55;;;;;;;;;;10353562;28;20040;-65
2021/10/28 09:19:27;;;;;;;24.33;16.63;;;;;;;;;;10353709;28;20072;-65
2021/10/28 09:27:03;;;;;;;21.73;18.75;;;;;;;;;;10359106;28;20071;-65
2021/10/28 09:32:11;;;;;;;21.02;17.83;;;;;;;;;;10355486;28;20067;-65
2021/10/28 09:48:03;;;;;;;22.40;17.45;;;;;;;;;;10359050;28;20072;-65
2021/10/28 09:53:08;;;;;;;26.15;21.00;;;;;;;;;;10345532;28;20066;-66
2021/10/28 09:58:21;;;;;;;22.85;20.23;;;;;;;;;;10358886;28;20060;-65
2021/10/28 10:03:24;;;;;;;20.00;17.25;;;;;;;;;;10354969;28;20082;-65
2021/10/28 10:08:25;;;;;;;28.30;19.35;;;;;;;;;;10357092;28;20048;-65
2021/10/28 10:13:23;;;;;;;26.90;19.70;;;;;;;;;;10358274;28;20059;-65
2021/10/28 10:18:23;;;;;;;23.90;17.92;;;;;;;;;;10358217;28;20473;-65
2021/10/28 10:23:36;;;;;;;26.90;16.67;;;;;;;;;;10354875;28;20068;-65
2021/10/28 11:23:35;;;;;;;24.10;18.10;;;;;;;;;;10383746;28;20079;-65
2021/10/28 12:22:10;;;;;;;20.92;15.23;;;;;;;;;;10284096;28;20083;-65
2021/10/28 12:54:46;;;;;;;35.40;15.38;;;;;;;;;;10270557;28;20105;-65
2021/10/28 13:05:21;;;;;;;27.90;16.35;;;;;;;;;;10277137;28;20072;-65
2021/10/28 14:24:49;;;;;;;49.20;31.98;;;;;;;;;;10313753;28;20072;-65
2021/10/28 15:28:15;;;;;;;;;;;;;;;;;;10273316;28;20060;-64
2021/10/28 15:38:42;;;;;;;39.45;32.03;;;;;;;;;;10245956;28;20076;-65
2021/10/28 15:59:54;;;;;;;31.42;27.15;;;;;;;;;;10272786;28;20117;-66
2021/10/28 16:26:02;;;;;;;32.78;27.67;;;;;;;;;;10278867;28;20057;-64
2021/10/28 16:31:00;;;;;;;34.80;24.38;;;;;;;;;;10279413;28;20069;-64
2021/10/28 16:36:00;;;;;;;19.55;14.63;;;;;;;;;;10279959;28;20459;-66
2021/10/28 16:40:59;;;;;;;21.02;16.40;;;;;;;;;;10278221;28;20072;-65
2021/10/28 16:45:57;;;;;;;23.17;14.48;;;;;;;;;;10278210;28;20076;-65
2021/10/28 16:50:56;;;;;;;19.83;14.02;;;;;;;;;;10277353;28;20065;-65
2021/10/28 16:55:56;;;;;;;21.90;14.30;;;;;;;;;;10277410;28;20069;-65
2021/10/28 17:00:57;;;;;;;25.67;17.27;;;;;;;;;;10276396;28;20615;-64
2021/10/28 17:05:56;;;;;;;44.90;28.92;;;;;;;;;;10287246;28;20068;-64
2021/10/28 17:10:56;;;;;;;57.65;35.63;;;;;;;;;;10282926;28;20103;-64
2021/10/28 17:15:54;;;;;;;32.45;21.23;;;;;;;;;;10279679;28;20480;-64
2021/10/28 17:20:55;;;;;;;33.28;24.65;;;;;;;;;;10288337;28;20415;-64
2021/10/28 17:25:56;;;;;;;21.58;15.93;;;;;;;;;;10287619;28;20072;-64
2021/10/28 17:30:56;;;;;;;21.17;14.43;;;;;;;;;;10281152;28;20494;-65
2021/10/28 17:35:55;;;;;;;20.48;12.63;;;;;;;;;;10278866;28;20530;-64
2021/10/28 17:40:57;;;;;;;19.70;13.73;;;;;;;;;;10279408;28;20297;-65
2021/10/28 17:46:15;;;;;;;16.90;13.73;;;;;;;;;;10287099;28;20061;-65
2021/10/28 17:51:14;;;;;;;24.23;16.63;;;;;;;;;;10273674;28;20501;-66
2021/10/28 17:56:13;;;;;;;23.23;18.23;;;;;;;;;;10287596;28;20358;-65
2021/10/28 18:01:14;;;;;;;21.23;16.17;;;;;;;;;;10281121;28;20447;-66
2021/10/28 18:06:14;;;;;;;39.03;18.73;;;;;;;;;;10281833;28;20556;-65
2021/10/28 18:11:12;;;;;;;23.33;17.08;;;;;;;;;;10279106;28;20068;-65
2021/10/28 18:16:13;;;;;;;21.33;15.38;;;;;;;;;;10276141;28;20072;-66
2021/10/28 18:21:11;;;;;;;23.75;17.55;;;;;;;;;;10279708;28;20108;-66
2021/10/28 18:26:11;;;;;;;38.80;27.60;;;;;;;;;;10284829;28;20080;-65
2021/10/28 18:31:09;;;;;;;28.45;17.05;;;;;;;;;;10282474;28;20085;-64
2021/10/28 18:36:09;;;;;;;19.02;14.75;;;;;;;;;;10280155;28;20072;-65
2021/10/28 18:41:07;;;;;;;24.15;15.25;;;;;;;;;;10256382;28;20080;-66
2021/10/28 18:46:08;;;;;;;20.92;15.45;;;;;;;;;;10275798;28;20076;-65
2021/10/28 18:51:07;;;;;;;20.73;15.02;;;;;;;;;;10277055;28;20071;-65
2021/10/28 18:56:06;;;;;;;27.90;19.33;;;;;;;;;;10280133;28;20468;-64
2021/10/28 19:01:04;;;;;;;24.67;17.73;;;;;;;;;;10278696;28;20053;-64
2021/10/28 19:06:05;;;;;;;19.13;13.93;;;;;;;;;;10300022;28;20317;-64
2021/10/28 19:11:03;;;;;;;23.42;17.05;;;;;;;;;;10280217;28;20567;-63
2021/10/28 19:16:05;;;;;;;17.35;13.93;;;;;;;;;;10275590;28;20065;-63
2021/10/28 19:21:07;;;;;;;17.25;13.95;;;;;;;;;;10273917;28;20091;-62
2021/10/28 19:26:07;;;;;;;15.98;12.80;;;;;;;;;;10278324;28;20068;-62
2021/10/28 19:31:13;;;;;;;17.30;12.73;;;;;;;;;;10276171;28;20521;-63
2021/10/28 19:36:28;;;;;;;18.48;12.68;;;;;;;;;;10271675;28;20450;-63
2021/10/28 19:46:39;;;;;;;24.77;17.17;;;;;;;;;;10272620;28;20091;-64
2021/10/28 19:51:39;;;;;;;20.85;15.35;;;;;;;;;;10277534;28;20501;-64
2021/10/28 19:56:37;;;;;;;22.90;15.65;;;;;;;;;;10289553;28;20075;-63
2021/10/28 20:01:40;;;;;;;15.93;13.75;;;;;;;;;;10284418;28;20548;-63
2021/10/28 20:06:46;;;;;;;21.52;14.50;;;;;;;;;;10280180;28;20067;-63
2021/10/28 20:22:20;;;;;;;26.42;16.75;;;;;;;;;;10283284;28;20516;-64
2021/10/28 20:27:18;;;;;;;21.65;14.52;;;;;;;;;;10283684;28;20073;-64
2021/10/28 20:32:17;;;;;;;23.95;16.75;;;;;;;;;;10282084;28;20096;-64
2021/10/28 20:37:16;;;;;;;23.63;17.63;;;;;;;;;;10281241;28;20069;-64
2021/10/28 20:42:17;;;;;;;23.42;16.60;;;;;;;;;;10278187;28;20045;-63
2021/10/28 20:47:17;;;;;;;41.95;31.52;;;;;;;;;;10279788;28;20072;-63
2021/10/28 20:52:15;;;;;;;45.67;34.42;;;;;;;;;;10278706;28;20061;-62
2021/10/28 20:57:17;;;;;;;46.22;34.17;;;;;;;;;;10279300;28;20060;-62
2021/10/28 21:02:17;;;;;;;46.70;33.20;;;;;;;;;;10279051;28;20072;-62
2021/10/28 21:07:16;;;;;;;36.10;23.27;;;;;;;;;;10279120;28;20481;-62
2021/10/28 21:12:14;;;;;;;38.17;25.70;;;;;;;;;;10276581;28;20163;-63
2021/10/28 21:17:12;;;;;;;51.75;36.15;;;;;;;;;;10276973;28;20045;-62
2021/10/28 21:22:14;;;;;;;49.35;34.70;;;;;;;;;;10275527;28;20060;-63
2021/10/28 21:27:12;;;;;;;45.83;31.25;;;;;;;;;;10277839;28;20072;-62
2021/10/28 21:32:11;;;;;;;41.85;29.33;;;;;;;;;;10278044;28;20068;-63
2021/10/28 21:37:11;;;;;;;40.03;29.67;;;;;;;;;;10258817;28;20044;-65
2021/10/28 21:42:11;;;;;;;42.58;32.50;;;;;;;;;;10276990;28;20080;-63
2021/10/28 21:47:10;;;;;;;43.72;30.48;;;;;;;;;;10277697;28;20053;-63
2021/10/28 21:52:15;;;;;;;37.65;26.27;;;;;;;;;;10277478;28;20077;-63
2021/10/28 21:57:24;;;;;;;28.02;19.85;;;;;;;;;;10277201;28;20103;-63
2021/10/28 22:02:42;;;;;;;35.35;24.08;;;;;;;;;;10276894;28;20445;-63
2021/10/28 22:29:00;;;;;;;32.35;25.10;;;;;;;;;;10259081;28;20088;-62
2021/10/28 22:33:59;;;;;;;31.10;25.13;;;;;;;;;;10274768;28;20076;-64
2021/10/28 22:39:01;;;;;;;34.92;25.80;;;;;;;;;;10274898;28;20071;-64
2021/10/28 22:44:01;;;;;;;44.58;30.23;;;;;;;;;;10274553;28;20544;-63
2021/10/28 22:49:00;;;;;;;36.10;27.40;;;;;;;;;;10274321;28;20473;-65
2021/10/28 22:53:58;;;;;;;179.68;95.35;;;;;;;;;;10274074;28;20068;-64
2021/10/28 22:59:00;;;;;;;49.92;34.83;;;;;;;;;;10274389;28;20081;-64
2021/10/28 23:25:23;;;;;;;44.30;33.40;;;;;;;;;;10272208;28;20273;-63
2021/10/28 23:30:21;;;;;;;43.97;33.05;;;;;;;;;;10271360;28;20084;-64
2021/10/28 23:35:21;;;;;;;40.92;32.08;;;;;;;;;;10271689;28;20072;-63
2021/10/28 23:40:20;;;;;;;44.92;32.47;;;;;;;;;;10271683;28;20072;-65
2021/10/28 23:45:18;;;;;;;43.58;30.77;;;;;;;;;;10271753;28;20045;-65
2021/10/28 23:50:16;;;;;;;31.33;22.45;;;;;;;;;;10274652;28;20061;-64
2021/10/28 23:55:16;;;;;;;34.03;24.65;;;;;;;;;;10271581;28;20099;-63
